Time;durP1;ratioP1;P1;durP2;ratioP2;P2;SDS_P1;SDS_P2;PMS_P1;PMS_P2;Temp;Humidity;BMP_temperature;BMP_pressure;BME280_temperature;BME280_humidity;BME280_pressure;Samples;Min_cycle;Max_cycle;Signal;HPM_P1;HPM_P2
2022/09/23 00:00:35;;;;;;;11.75;8.23;;;;;;;14.59;59.53;100825.19;5028263;28;20044;-83
2022/09/23 00:03:01;;;;;;;16.95;6.78;;;;;;;14.45;59.44;100793.19;5028321;28;20041;-84
2022/09/23 00:05:28;;;;;;;12.48;7.55;;;;;;;14.54;59.27;100812.13;5026854;28;20097;-86
2022/09/23 00:07:54;;;;;;;25.67;7.88;;;;;;;14.62;59.08;100825.78;5028010;28;20026;-85
2022/09/23 00:10:21;;;;;;;16.13;8.10;;;;;;;14.41;58.62;100794.47;5026467;28;20102;-86
2022/09/23 00:12:47;;;;;;;11.52;7.05;;;;;;;14.57;58.65;100816.38;5017834;28;20030;-84
2022/09/23 00:15:13;;;;;;;16.95;7.30;;;;;;;14.72;58.40;100831.16;5013272;28;20037;-85
2022/09/23 00:17:39;;;;;;;15.05;6.65;;;;;;;14.68;58.47;100827.03;5012880;28;20397;-84
2022/09/23 00:20:08;;;;;;;23.85;7.03;;;;;;;14.75;58.30;100830.88;5012670;28;20029;-84
2022/09/23 00:22:34;;;;;;;11.40;6.90;;;;;;;14.76;58.56;100829.88;5013515;28;20061;-84
2022/09/23 00:24:59;;;;;;;22.38;8.25;;;;;;;14.70;57.98;100850.28;5013347;28;20025;-85
2022/09/23 00:27:25;;;;;;;15.07;6.63;;;;;;;14.70;58.06;100850.28;5011662;28;20041;-86
2022/09/23 00:29:50;;;;;;;14.07;6.47;;;;;;;14.61;58.18;100823.22;5013445;28;20096;-85
2022/09/23 00:32:16;;;;;;;20.17;6.85;;;;;;;14.73;57.63;100854.56;5012556;28;20033;-86
2022/09/23 00:34:43;;;;;;;12.07;6.45;;;;;;;14.72;58.04;100847.41;5012307;28;20083;-84
2022/09/23 00:37:08;;;;;;;15.52;7.07;;;;;;;14.60;58.16;100838.63;5013332;28;20030;-83
2022/09/23 00:39:34;;;;;;;14.43;7.85;;;;;;;14.53;58.37;100847.44;5024438;28;20041;-82
2022/09/23 00:41:59;;;;;;;16.35;7.43;;;;;;;14.55;58.34;100830.09;5011495;28;20026;-82
2022/09/23 00:44:40;;;;;;;19.92;7.63;;;;;;;14.56;58.20;100836.31;5012008;28;20034;-82
2022/09/23 00:47:13;;;;;;;26.75;9.63;;;;;;;14.25;58.64;100826.66;5011812;28;20040;-82
2022/09/23 00:49:39;;;;;;;19.00;8.77;;;;;;;14.39;58.45;100840.63;5012124;28;20041;-82
2022/09/23 00:52:17;;;;;;;29.77;9.82;;;;;;;14.49;58.25;100852.31;5013604;28;20026;-83
2022/09/23 00:54:45;;;;;;;14.35;9.00;;;;;;;14.46;58.28;100851.75;5013376;28;20056;-81
2022/09/23 00:57:14;;;;;;;12.55;7.78;;;;;;;14.46;58.32;100849.88;5013267;28;20041;-82
2022/09/23 00:59:41;;;;;;;21.48;9.00;;;;;;;14.50;58.41;100853.13;5013752;28;20034;-81
2022/09/23 01:02:09;;;;;;;25.88;10.00;;;;;;;14.22;58.26;100805.31;5012015;28;20049;-82
2022/09/23 01:04:35;;;;;;;20.85;8.45;;;;;;;14.53;58.06;100855.56;5014833;28;20061;-81
2022/09/23 01:07:01;;;;;;;32.08;8.10;;;;;;;14.43;58.14;100838.50;5020102;28;20033;-81
2022/09/23 01:09:27;;;;;;;24.30;8.13;;;;;;;14.35;58.18;100817.56;5031163;28;20041;-81
2022/09/23 01:12:17;;;;;;;18.90;7.22;;;;;;;14.51;58.39;100849.44;5033625;28;20018;-81
2022/09/23 01:14:51;;;;;;;25.23;6.97;;;;;;;14.45;58.77;100841.91;5012176;28;20018;-82
2022/09/23 01:17:41;;;;;;;23.58;8.10;;;;;;;14.24;58.51;100797.91;5012073;28;20034;-81
2022/09/23 01:20:30;;;;;;;21.48;8.40;;;;;;;14.62;58.45;100849.28;5011751;28;20036;-80
2022/09/23 01:23:04;;;;;;;16.75;7.07;;;;;;;14.65;58.10;100854.41;5012020;28;20022;-82
2022/09/23 01:25:40;;;;;;;14.57;7.03;;;;;;;14.65;57.96;100846.28;5011536;28;20026;-81
2022/09/23 01:28:19;;;;;;;9.15;5.00;;;;;;;14.55;57.69;100829.22;5011375;28;20409;-82
2022/09/23 01:30:47;;;;;;;13.38;5.97;;;;;;;14.71;57.89;100846.56;4976798;28;20041;-81
2022/09/23 01:33:40;;;;;;;10.27;5.00;;;;;;;14.62;57.64;100827.63;5011782;28;20034;-82
2022/09/23 01:36:21;;;;;;;17.98;6.57;;;;;;;14.71;57.66;100841.13;5011029;28;20034;-82
2022/09/23 01:39:02;;;;;;;22.98;4.75;;;;;;;14.73;57.54;100845.56;5011400;28;20052;-81
2022/09/23 01:42:21;;;;;;;12.48;4.65;;;;;;;14.78;57.53;100838.72;5011346;28;20022;-82
2022/09/23 01:44:55;;;;;;;20.13;5.18;;;;;;;14.59;57.18;100806.25;4969812;28;20037;-82
2022/09/23 01:47:28;;;;;;;32.22;6.05;;;;;;;14.89;57.32;100837.69;4969491;28;20043;-83
2022/09/23 01:50:02;;;;;;;7.40;4.57;;;;;;;14.78;57.40;100838.72;4969400;28;20074;-83
2022/09/23 01:52:31;;;;;;;9.65;4.85;;;;;;;14.84;57.32;100846.25;4969825;28;20134;-81
2022/09/23 01:55:07;;;;;;;13.80;5.22;;;;;;;14.82;57.48;100847.41;4970003;28;20093;-84
2022/09/23 01:57:47;;;;;;;11.18;5.53;;;;;;;14.77;57.80;100847.81;4937258;28;20035;-82
2022/09/23 02:00:16;;;;;;;9.43;5.25;;;;;;;14.77;57.66;100847.81;4970249;28;20135;-82
2022/09/23 02:03:14;;;;;;;12.77;5.50;;;;;;;14.81;57.71;100851.94;4969515;28;20037;-83
2022/09/23 02:05:55;;;;;;;10.38;5.50;;;;;;;14.70;57.79;100849.44;4932940;29;20050;-81
2022/09/23 02:08:48;;;;;;;9.20;5.72;;;;;;;14.70;58.02;100854.84;4943277;29;20027;-80
2022/09/23 02:11:15;;;;;;;10.02;4.72;;;;;;;14.30;57.99;100792.78;4931050;29;20047;-82
2022/09/23 02:13:57;;;;;;;12.93;4.97;;;;;;;14.57;58.23;100848.88;4931401;29;20494;-82
2022/09/23 02:16:25;;;;;;;;;;;;;;;14.52;58.35;100845.75;4931801;29;20044;-83
2022/09/23 02:19:09;;;;;;;35.88;14.27;;;;;;;14.41;58.73;100859.41;4952612;28;19914;-82
2022/09/23 02:21:39;;;;;;;56.08;24.50;;;;;;;14.27;59.54;100840.91;4971118;28;20537;-82
2022/09/23 02:24:11;;;;;;;12.88;7.47;;;;;;;14.20;59.18;100846.03;4973583;28;20538;-82
2022/09/23 02:26:52;;;;;;;13.02;7.03;;;;;;;14.04;59.61;100818.69;4973242;28;20043;-82
2022/09/23 02:29:20;;;;;;;13.45;6.00;;;;;;;14.16;59.43;100837.34;4973500;28;20038;-81
2022/09/23 02:32:07;;;;;;;36.83;8.05;;;;;;;14.16;59.82;100845.44;4979309;28;20042;-81
2022/09/23 02:34:45;;;;;;;37.05;7.32;;;;;;;14.15;59.85;100845.59;4986163;28;20039;-81
2022/09/23 02:37:43;;;;;;;9.55;5.22;;;;;;;14.08;59.77;100837.19;4988762;28;20038;-82
2022/09/23 02:40:15;;;;;;;6.45;4.15;;;;;;;14.08;59.80;100850.72;4897835;29;20052;-82
2022/09/23 02:42:47;;;;;;;;;;;;;;;14.00;60.33;100847.03;4921113;29;20154;-81
2022/09/23 02:45:12;;;;;;;4.70;3.65;;;;;;;13.98;60.14;100836.34;4934899;29;19914;-82
2022/09/23 02:47:43;;;;;;;10.63;4.30;;;;;;;14.06;60.09;100847.31;4934554;29;20041;-84
2022/09/23 02:50:09;;;;;;;11.52;5.38;;;;;;;14.07;60.31;100849.00;4933825;29;20035;-85
2022/09/23 02:52:37;;;;;;;12.07;5.30;;;;;;;14.08;60.16;100848.03;4934078;29;20035;-84
2022/09/23 02:55:05;;;;;;;17.48;5.50;;;;;;;14.14;60.04;100852.00;4934065;29;20143;-83
2022/09/23 02:57:31;;;;;;;8.75;5.75;;;;;;;14.06;60.29;100855.44;4933785;29;20079;-85
2022/09/23 02:59:57;;;;;;;11.43;5.10;;;;;;;14.12;59.71;100844.03;4933700;29;20040;-84
2022/09/23 03:02:31;;;;;;;18.15;5.88;;;;;;;14.14;60.00;100846.59;4933853;29;20127;-84
2022/09/23 03:04:57;;;;;;;15.38;5.40;;;;;;;14.14;59.85;100852.84;4933711;29;20036;-84
2022/09/23 03:07:25;;;;;;;29.55;6.97;;;;;;;14.17;59.84;100854.41;4933495;29;20039;-82
2022/09/23 03:10:22;;;;;;;25.60;8.13;;;;;;;14.21;59.97;100857.69;4934106;29;20071;-81
2022/09/23 03:12:59;;;;;;;8.75;4.88;;;;;;;14.05;60.07;100847.44;4933881;29;20055;-84
2022/09/23 03:15:34;;;;;;;11.25;4.90;;;;;;;14.19;60.03;100855.97;4962750;28;20062;-83
2022/09/23 03:18:17;;;;;;;22.45;6.65;;;;;;;13.98;59.90;100824.66;5013961;28;20400;-82
2022/09/23 03:21:09;;;;;;;18.52;6.65;;;;;;;14.20;59.65;100862.25;5013769;28;20104;-82
2022/09/23 03:23:38;;;;;;;11.27;6.32;;;;;;;14.17;59.73;100857.13;5012088;28;20041;-82
2022/09/23 03:26:11;;;;;;;16.95;5.78;;;;;;;14.19;59.65;100861.38;5013724;28;20032;-83
2022/09/23 03:28:38;;;;;;;15.82;6.82;;;;;;;14.22;59.45;100860.25;5014123;28;20105;-81
2022/09/23 03:31:04;;;;;;;13.07;5.55;;;;;;;14.20;59.21;100856.84;5014255;28;20033;-81
2022/09/23 03:33:31;;;;;;;19.15;6.15;;;;;;;14.18;59.48;100846.19;5012905;28;20026;-83
2022/09/23 03:38:53;;;;;;;11.80;6.28;;;;;;;14.04;59.26;100835.75;5024034;28;20479;-82
2022/09/23 03:41:27;;;;;;;14.05;6.03;;;;;;;14.18;59.21;100865.13;5017225;28;20029;-81
2022/09/23 03:43:57;;;;;;;12.18;4.78;;;;;;;14.10;58.95;100851.44;5014519;28;20030;-79
2022/09/23 03:46:27;;;;;;;9.60;6.13;;;;;;;13.97;59.85;100850.88;5035756;28;20041;-81
2022/09/23 03:49:01;;;;;;;11.45;4.43;;;;;;;14.05;59.80;100855.56;5034910;28;20018;-81
2022/09/23 03:51:26;;;;;;;14.07;5.28;;;;;;;13.97;59.80;100858.13;5020762;28;20117;-86
2022/09/23 03:53:52;;;;;;;30.63;6.15;;;;;;;14.10;59.66;100862.25;5016174;28;20073;-83
2022/09/23 03:56:17;;;;;;;11.75;6.05;;;;;;;14.04;59.84;100870.94;5017662;28;20028;-81
2022/09/23 03:58:45;;;;;;;12.70;5.35;;;;;;;14.00;60.02;100850.59;5025055;28;20022;-83
2022/09/23 04:01:11;;;;;;;16.92;6.15;;;;;;;14.03;59.96;100857.56;5030227;28;20026;-80
2022/09/23 04:03:37;;;;;;;16.65;7.28;;;;;;;14.06;59.68;100863.53;5032236;28;20021;-81
2022/09/23 04:06:02;;;;;;;13.55;7.68;;;;;;;14.00;59.92;100849.72;5016697;28;20041;-83
2022/09/23 04:08:28;;;;;;;12.07;8.38;;;;;;;14.11;60.02;100874.78;5013072;28;20486;-80
2022/09/23 04:10:58;;;;;;;23.27;8.43;;;;;;;14.06;59.67;100855.44;5011074;28;20038;-82
2022/09/23 04:13:24;;;;;;;13.98;7.30;;;;;;;14.12;59.88;100871.09;5012228;28;20120;-84
2022/09/23 04:15:49;;;;;;;22.27;7.20;;;;;;;14.03;59.85;100850.31;5013573;28;20485;-80
2022/09/23 04:18:15;;;;;;;15.90;6.65;;;;;;;14.14;59.95;100874.50;5010182;28;20025;-77
2022/09/23 04:20:40;;;;;;;12.85;7.13;;;;;;;13.86;59.85;100831.19;5011624;28;20041;-79
2022/09/23 04:23:06;;;;;;;16.05;7.28;;;;;;;14.06;59.98;100859.97;5011216;28;20149;-80
2022/09/23 04:25:31;;;;;;;19.70;7.25;;;;;;;13.98;59.87;100849.84;5011246;28;20498;-80
2022/09/23 04:27:57;;;;;;;31.58;9.30;;;;;;;13.86;59.75;100825.78;5011727;28;20022;-86
2022/09/23 04:30:23;;;;;;;161.88;24.83;;;;;;;14.18;59.87;100889.47;5014868;28;20022;-86
2022/09/23 04:32:48;;;;;;;44.53;11.25;;;;;;;14.17;59.57;100887.75;5014337;28;20033;-86
2022/09/23 04:35:14;;;;;;;23.05;9.45;;;;;;;14.13;59.57;100888.16;5015324;28;20495;-86
2022/09/23 04:37:39;;;;;;;28.15;9.77;;;;;;;14.10;59.79;100892.00;5018317;28;20373;-87
2022/09/23 04:40:06;;;;;;;15.68;9.70;;;;;;;14.15;59.74;100897.84;5014918;28;20030;-86
2022/09/23 04:42:32;;;;;;;28.50;10.80;;;;;;;14.05;59.96;100883.47;5013525;28;20045;-86
2022/09/23 04:44:57;;;;;;;22.70;11.48;;;;;;;13.97;59.69;100875.22;5013241;28;20037;-85
2022/09/23 04:47:23;;;;;;;24.50;10.95;;;;;;;13.84;60.57;100887.28;5017082;28;20034;-86
2022/09/23 04:49:48;;;;;;;31.35;11.05;;;;;;;13.79;60.47;100874.16;5016802;28;20559;-86
2022/09/23 04:52:14;;;;;;;56.65;22.73;;;;;;;13.89;60.49;100902.06;5017504;28;20026;-83
2022/09/23 04:54:40;;;;;;;46.25;17.92;;;;;;;13.94;60.58;100902.50;5014482;28;20058;-85
2022/09/23 04:57:06;;;;;;;25.70;10.32;;;;;;;13.88;60.66;100902.22;5015881;28;20018;-87
2022/09/23 04:59:31;;;;;;;78.70;13.90;;;;;;;14.02;60.14;100902.69;5017042;28;20044;-84
2022/09/23 05:01:56;;;;;;;40.63;11.52;;;;;;;14.01;59.98;100892.84;5012216;28;20103;-83
2022/09/23 05:04:22;;;;;;;74.93;16.25;;;;;;;14.06;60.44;100887.88;5011479;28;20040;-82
2022/09/23 05:06:48;;;;;;;34.17;9.00;;;;;;;14.02;60.34;100883.75;5014131;28;20050;-81
2022/09/23 05:09:16;;;;;;;20.77;9.82;;;;;;;13.98;60.16;100868.78;5014946;28;20587;-84
2022/09/23 05:11:42;;;;;;;25.15;9.20;;;;;;;14.22;60.17;100908.13;5017946;28;20038;-80
2022/09/23 05:14:07;;;;;;;137.77;16.30;;;;;;;14.28;59.90;100907.56;5007338;28;20092;-77
2022/09/23 05:16:33;;;;;;;48.45;13.25;;;;;;;14.27;59.82;100903.97;5007598;28;20529;-77
2022/09/23 05:18:58;;;;;;;1999.90;633.80;;;;;;;14.23;59.74;100888.16;5012653;28;20040;-79
2022/09/23 05:21:27;;;;;;;448.23;36.95;;;;;;;14.16;59.55;100863.53;5007706;28;20096;-78
2022/09/23 05:23:57;;;;;;;102.28;12.80;;;;;;;14.21;59.35;100868.53;5019414;28;20036;-79
2022/09/23 05:26:25;;;;;;;25.83;7.95;;;;;;;14.30;59.59;100894.72;5021207;28;20030;-78
2022/09/23 05:28:51;;;;;;;28.80;6.88;;;;;;;14.30;59.65;100895.59;5022033;28;20042;-79
2022/09/23 05:31:18;;;;;;;14.73;5.32;;;;;;;14.41;59.67;100903.56;5011452;28;20091;-78
2022/09/23 05:33:47;;;;;;;14.70;4.80;;;;;;;14.33;59.32;100895.34;5008071;28;20042;-82
2022/09/23 05:36:13;;;;;;;22.90;5.78;;;;;;;14.42;58.90;100905.31;5008999;28;20490;-79
2022/09/23 05:38:39;;;;;;;10.30;5.40;;;;;;;14.28;58.81;100875.09;5010283;28;20125;-79
2022/09/23 05:41:07;;;;;;;7.43;5.20;;;;;;;14.57;58.47;100903.88;5010035;28;20042;-80
2022/09/23 05:43:33;;;;;;;163.85;21.77;;;;;;;14.63;58.42;100913.25;5009753;28;20119;-81
2022/09/23 05:46:12;;;;;;;21.58;6.22;;;;;;;14.80;58.57;100915.22;5009605;28;20040;-80
2022/09/23 05:48:39;;;;;;;78.75;20.48;;;;;;;14.90;58.08;100913.34;5010191;28;20053;-80
2022/09/23 05:51:10;;;;;;;33.80;8.25;;;;;;;15.04;57.96;100931.88;5010357;28;20033;-81
2022/09/23 05:53:35;;;;;;;28.13;13.00;;;;;;;15.18;57.80;100926.00;5013601;28;20045;-81
2022/09/23 05:56:02;;;;;;;68.63;24.65;;;;;;;15.24;57.52;100925.41;5010439;28;20037;-79
2022/09/23 05:58:28;;;;;;;92.22;45.50;;;;;;;15.35;58.02;100934.34;5013037;28;20057;-80
2022/09/23 06:00:56;;;;;;;65.38;16.05;;;;;;;15.39;57.93;100941.16;5015968;28;20029;-84
2022/09/23 06:03:23;;;;;;;15.85;9.23;;;;;;;15.55;58.02;100949.56;5017981;28;20147;-83
2022/09/23 06:05:53;;;;;;;27.70;10.90;;;;;;;15.42;57.60;100911.06;5017195;28;20026;-82
2022/09/23 06:08:19;;;;;;;24.10;10.43;;;;;;;15.69;57.27;100962.63;5016200;28;20031;-83
2022/09/23 06:10:45;;;;;;;95.32;62.22;;;;;;;15.75;57.29;100960.19;5014189;28;20030;-82
2022/09/23 06:13:11;;;;;;;34.45;13.27;;;;;;;15.76;57.27;100958.31;5014407;28;20030;-82
2022/09/23 06:15:37;;;;;;;273.83;171.90;;;;;;;15.68;56.35;100945.53;5014204;28;20504;-83
2022/09/23 06:18:03;;;;;;;21.25;9.10;;;;;;;15.78;56.58;100957.16;5014388;28;20108;-83
2022/09/23 06:20:29;;;;;;;22.52;6.30;;;;;;;15.89;56.03;100969.69;5013134;28;20419;-80
2022/09/23 06:22:55;;;;;;;11.07;6.53;;;;;;;15.89;56.08;100960.69;5013607;28;20038;-80
2022/09/23 06:25:22;;;;;;;34.80;18.15;;;;;;;15.73;56.36;100920.66;5013181;28;20554;-82
2022/09/23 06:27:54;;;;;;;36.88;9.77;;;;;;;16.10;55.91;100966.72;5012880;28;20895;-83
2022/09/23 06:30:23;;;;;;;;;;;;;;;16.16;55.94;100964.25;5014457;28;20029;-82
2022/09/23 06:32:51;;;;;;;24.38;12.55;;;;;;;16.22;55.96;100974.50;5014621;28;19927;-83
2022/09/23 06:35:26;;;;;;;27.38;7.95;;;;;;;16.17;55.77;100963.25;5019416;28;20057;-80
2022/09/23 06:37:53;;;;;;;46.75;19.15;;;;;;;16.36;55.56;100977.69;5019336;28;20049;-82
2022/09/23 06:40:19;;;;;;;26.17;11.75;;;;;;;16.24;55.56;100942.63;5015287;28;20029;-83
2022/09/23 06:42:45;;;;;;;37.97;20.58;;;;;;;16.47;54.96;100943.03;5012926;28;20082;-85
2022/09/23 06:45:13;;;;;;;31.42;14.43;;;;;;;16.38;55.48;100913.22;5024342;28;20044;-90
2022/09/23 06:47:40;;;;;;;44.15;10.77;;;;;;;16.65;55.18;100952.06;5037393;28;20026;-90
2022/09/23 06:50:07;;;;;;;32.30;8.43;;;;;;;16.98;54.22;100983.06;5037958;28;20026;-85
2022/09/23 06:52:33;;;;;;;17.60;7.60;;;;;;;16.96;54.12;100952.50;5037041;28;20089;-88
2022/09/23 06:54:59;;;;;;;24.85;7.32;;;;;;;16.92;54.19;100947.50;5032838;28;20076;-87
2022/09/23 06:57:28;;;;;;;15.10;6.57;;;;;;;17.13;53.77;100950.72;5017373;28;20048;-87
2022/09/23 06:59:54;;;;;;;16.55;5.85;;;;;;;17.19;53.12;100960.97;5015444;28;20021;-84
2022/09/23 07:02:19;;;;;;;23.90;6.43;;;;;;;17.13;53.53;100928.97;5011670;28;20485;-83
2022/09/23 07:04:45;;;;;;;63.60;10.23;;;;;;;17.41;53.09;100958.56;5014126;28;20030;-89
2022/09/23 07:07:12;;;;;;;52.58;7.07;;;;;;;17.56;52.56;100955.28;5016113;28;20026;-89
2022/09/23 07:09:38;;;;;;;31.05;8.90;;;;;;;17.46;52.54;100920.00;5012565;28;20033;-83
2022/09/23 07:12:04;;;;;;;99.15;12.75;;;;;;;17.76;52.10;100954.03;5012854;28;20034;-81
2022/09/23 07:14:29;;;;;;;17.42;5.60;;;;;;;17.86;51.79;100954.75;5013727;28;20029;-80
2022/09/23 07:16:55;;;;;;;85.57;61.42;;;;;;;17.97;51.47;100942.72;5013160;28;20022;-82
2022/09/23 07:19:20;;;;;;;12.95;5.32;;;;;;;17.94;50.62;100927.59;5016842;28;20029;-87
2022/09/23 07:21:45;;;;;;;16.88;2.67;;;;;;;18.11;49.46;100959.28;5015050;28;20449;-86
2022/09/23 07:24:11;;;;;;;49.17;5.90;;;;;;;18.10;48.68;100960.31;5010910;28;20572;-88
2022/09/23 07:26:36;;;;;;;1999.90;343.20;;;;;;;18.01;48.79;100942.22;5015735;28;20041;-81
2022/09/23 07:29:03;;;;;;;1999.90;619.38;;;;;;;18.07;49.12;100949.72;5017406;28;20026;-82
2022/09/23 07:31:30;;;;;;;597.40;84.35;;;;;;;18.23;48.87;100957.09;5019277;28;20026;-82
2022/09/23 07:33:57;;;;;;;50.10;7.13;;;;;;;18.24;47.09;100943.31;5016758;28;20091;-81
2022/09/23 07:36:23;;;;;;;6.07;1.70;;;;;;;18.27;46.86;100948.44;5012840;28;20030;-82
2022/09/23 07:38:49;;;;;;;3.47;2.15;;;;;;;18.06;47.21;100912.66;5011741;28;20038;-81
2022/09/23 07:41:17;;;;;;;192.32;16.50;;;;;;;18.32;47.88;100946.06;5011512;28;20083;-81
2022/09/23 07:43:44;;;;;;;1999.90;772.05;;;;;;;18.41;46.33;100936.88;5011071;28;20034;-82
2022/09/23 07:46:15;;;;;;;179.57;25.13;;;;;;;18.47;45.64;100938.94;5014137;28;20081;-81
2022/09/23 07:48:41;;;;;;;1212.47;198.50;;;;;;;18.44;46.09;100933.81;5012398;28;20022;-83
2022/09/23 07:51:08;;;;;;;550.50;76.13;;;;;;;18.48;45.68;100940.63;5011486;28;20034;-82
2022/09/23 07:53:33;;;;;;;25.65;3.67;;;;;;;18.03;45.67;100874.88;5012312;28;20141;-85
2022/09/23 07:55:59;;;;;;;279.60;35.83;;;;;;;18.33;45.74;100923.25;5015191;28;20061;-80
2022/09/23 07:58:25;;;;;;;1678.30;272.38;;;;;;;18.51;46.38;100952.25;5012216;28;20034;-83
2022/09/23 08:00:52;;;;;;;348.63;48.75;;;;;;;18.54;44.95;100932.84;5016898;28;20032;-84
2022/09/23 08:03:18;;;;;;;339.15;35.78;;;;;;;18.21;45.35;100889.19;5015753;28;20049;-84
2022/09/23 08:05:45;;;;;;;264.48;32.05;;;;;;;18.69;46.43;100947.50;5024429;28;20061;-83
2022/09/23 08:08:12;;;;;;;1999.90;516.03;;;;;;;18.64;45.08;100925.34;5012402;28;20084;-83
2022/09/23 08:10:38;;;;;;;1884.18;305.50;;;;;;;18.68;45.98;100922.16;5012062;28;20033;-83
2022/09/23 08:13:04;;;;;;;151.23;40.42;;;;;;;18.78;44.81;100920.06;5012123;28;20038;-84
2022/09/23 08:15:30;;;;;;;14.57;3.05;;;;;;;19.00;44.71;100941.19;5026974;28;20040;-83
2022/09/23 08:17:58;;;;;;;9.65;2.60;;;;;;;19.02;44.00;100941.88;5026430;28;20025;-82
2022/09/23 08:20:43;;;;;;;6.95;2.50;;;;;;;18.93;43.25;100912.91;5025372;28;20025;-82
2022/09/23 08:23:13;;;;;;;10.93;2.45;;;;;;;18.96;43.08;100903.53;5025626;28;20057;-82
2022/09/23 08:25:39;;;;;;;6.28;2.00;;;;;;;19.16;42.17;100928.56;5022338;28;20034;-82
2022/09/23 08:28:05;;;;;;;5.90;1.60;;;;;;;19.12;41.99;100933.50;5033717;28;20093;-82
2022/09/23 08:30:31;;;;;;;23.45;3.25;;;;;;;19.09;41.31;100917.50;5036136;28;20037;-83
2022/09/23 08:32:56;;;;;;;2.70;1.40;;;;;;;19.00;40.36;100897.59;5024469;28;20029;-84
2022/09/23 08:35:22;;;;;;;20.42;1.92;;;;;;;19.12;40.54;100933.50;5012040;28;20026;-82
2022/09/23 08:37:47;;;;;;;13.35;2.53;;;;;;;19.22;40.59;100915.09;5012743;28;20485;-84
2022/09/23 08:40:13;;;;;;;8.00;1.77;;;;;;;19.23;41.14;100925.00;5013582;28;20033;-82
2022/09/23 08:42:42;;;;;;;1.75;1.30;;;;;;;19.18;40.45;100911.00;5011870;28;20136;-82
2022/09/23 08:45:16;;;;;;;3.33;1.60;;;;;;;19.21;40.78;100901.63;5011216;28;20030;-84
2022/09/23 08:47:53;;;;;;;155.93;8.73;;;;;;;19.24;41.02;100879.47;5011163;28;20037;-83
2022/09/23 08:50:22;;;;;;;2.13;1.52;;;;;;;19.58;40.13;100915.53;5009460;28;20029;-83
2022/09/23 08:52:55;;;;;;;177.65;16.15;;;;;;;19.62;40.52;100905.97;5010884;28;20030;-84
2022/09/23 08:55:46;;;;;;;96.20;11.77;;;;;;;19.76;40.55;100907.09;5011534;28;20523;-86
2022/09/23 08:58:47;;;;;;;155.43;13.43;;;;;;;19.88;41.32;100908.41;5012235;28;20113;-85
2022/09/23 09:01:36;;;;;;;15.82;7.20;;;;;;;19.98;40.25;100909.91;4971462;28;20045;-83
2022/09/23 09:04:09;;;;;;;6.05;2.10;;;;;;;19.90;40.26;100887.25;4970274;28;20106;-83
2022/09/23 09:06:41;;;;;;;;;;;;;;;20.03;40.36;100912.09;4970749;28;20042;-84
2022/09/23 09:09:20;;;;;;;16.95;2.05;;;;;;;19.89;38.90;100888.28;4970528;28;20087;-83
2022/09/23 09:11:49;;;;;;;4.10;1.17;;;;;;;19.75;39.06;100880.84;4970118;28;20026;-82
2022/09/23 09:14:17;;;;;;;2.15;1.67;;;;;;;19.91;39.47;100897.13;4969958;28;20031;-83
2022/09/23 09:16:54;;;;;;;2.72;2.22;;;;;;;19.83;39.92;100872.63;4970297;28;20067;-83
2022/09/23 09:19:46;;;;;;;7.30;2.15;;;;;;;19.87;39.80;100884.88;4970480;28;20049;-84
2022/09/23 09:22:18;;;;;;;6.07;1.80;;;;;;;19.83;39.60;100862.56;4950021;29;20883;-84
2022/09/23 09:24:48;;;;;;;82.22;4.50;;;;;;;20.18;39.50;100877.53;4950548;29;20074;-84
2022/09/23 09:27:14;;;;;;;40.67;4.00;;;;;;;20.09;39.77;100846.69;4950357;29;20122;-83
2022/09/23 09:29:47;;;;;;;1.80;1.45;;;;;;;20.48;38.92;100905.88;4934933;29;20134;-84
2022/09/23 09:32:21;;;;;;;4.18;1.95;;;;;;;20.54;39.15;100910.59;4959031;29;20033;-84
2022/09/23 09:34:57;;;;;;;9.10;2.10;;;;;;;20.63;38.84;100904.03;4972396;29;20054;-83
2022/09/23 09:37:45;;;;;;;12.80;2.05;;;;;;;20.59;38.10;100909.03;4952245;29;20441;-85
2022/09/23 09:40:12;;;;;;;4.88;1.85;;;;;;;20.58;38.11;100860.84;4958580;29;20050;-82
2022/09/23 09:42:39;;;;;;;11.85;2.25;;;;;;;20.94;38.16;100887.53;4970652;29;20031;-84
2022/09/23 09:45:52;;;;;;;48.83;3.97;;;;;;;21.03;38.30;100898.22;4970375;29;20103;-82
2022/09/23 09:48:37;;;;;;;;;;;;;;;21.11;38.62;100908.25;4959034;29;20169;-85
2022/09/23 09:51:19;;;;;;;25.27;2.88;;;;;;;21.08;37.87;100908.59;4951923;29;19987;-84
2022/09/23 09:53:44;;;;;;;9.52;2.22;;;;;;;20.75;38.74;100869.78;4950906;29;20047;-84
2022/09/23 09:56:13;;;;;;;4.93;2.33;;;;;;;20.82;38.85;100869.88;4950987;29;20062;-85
2022/09/23 09:58:57;;;;;;;27.27;3.92;;;;;;;20.99;37.76;100902.34;4951106;28;20042;-84
2022/09/23 10:01:26;;;;;;;101.78;40.28;;;;;;;20.83;39.66;100883.34;5009176;28;20030;-84
2022/09/23 10:03:54;;;;;;;31.52;19.58;;;;;;;20.50;41.79;100910.13;5011183;28;20103;-84
2022/09/23 10:06:26;;;;;;;40.03;16.50;;;;;;;20.24;42.91;100901.41;5011409;28;20026;-84
2022/09/23 10:09:03;;;;;;;11.52;3.53;;;;;;;20.13;43.02;100909.97;5010929;28;20059;-85
2022/09/23 10:11:31;;;;;;;5.38;2.08;;;;;;;20.03;43.04;100890.22;5011036;28;20113;-85
2022/09/23 10:14:03;;;;;;;19.08;3.15;;;;;;;19.58;43.37;100874.59;5011617;28;20079;-85
2022/09/23 10:16:30;;;;;;;9.52;2.90;;;;;;;19.54;44.03;100898.66;5014116;28;20032;-85
2022/09/23 10:18:57;;;;;;;63.25;4.95;;;;;;;19.30;44.55;100865.97;5015112;28;20095;-85
2022/09/23 10:21:25;;;;;;;14.18;2.92;;;;;;;19.63;44.38;100894.00;5011300;28;20022;-85
2022/09/23 10:23:53;;;;;;;185.00;12.10;;;;;;;19.65;43.78;100878.34;5012047;28;20413;-85
2022/09/23 10:26:26;;;;;;;14.10;2.63;;;;;;;19.16;43.40;100814.91;5010913;28;20029;-83
2022/09/23 10:28:54;;;;;;;25.48;2.67;;;;;;;19.57;43.24;100883.81;5010740;28;20091;-84
2022/09/23 10:31:29;;;;;;;18.20;3.13;;;;;;;19.56;43.16;100854.84;5010668;28;20504;-84
2022/09/23 10:34:00;;;;;;;12.77;2.85;;;;;;;19.81;43.60;100888.34;5011111;28;20038;-85
2022/09/23 10:36:30;;;;;;;2.75;2.20;;;;;;;19.64;43.69;100873.91;5008926;28;20417;-85
2022/09/23 10:46:37;;;;;;;10.15;3.35;;;;;;;19.36;43.39;100880.78;5010235;28;20072;-84
2022/09/23 10:47:58;;;;;;;5.45;2.30;;;;;;;20.22;42.80;100873.41;5014009;28;20125;-83
2022/09/23 10:50:38;;;;;;;6.75;2.08;;;;;;;20.14;42.01;100876.19;5013804;28;20033;-85
2022/09/23 10:53:48;;;;;;;8.75;2.50;;;;;;;20.26;41.52;100873.94;5014236;28;20025;-84
2022/09/23 10:56:36;;;;;;;17.88;2.72;;;;;;;20.17;40.93;100869.50;4914648;29;20067;-83
2022/09/23 10:59:28;;;;;;;4.57;2.45;;;;;;;20.26;41.14;100850.19;4915263;29;20076;-84
2022/09/23 11:02:20;;;;;;;31.52;5.15;;;;;;;20.66;40.65;100857.22;4923208;29;20070;-83
2022/09/23 11:05:04;;;;;;;24.90;3.33;;;;;;;20.97;40.54;100848.88;4934098;29;20619;-83
2022/09/23 11:07:39;;;;;;;60.20;4.47;;;;;;;21.08;39.30;100853.88;4931610;29;20043;-83
2022/09/23 11:10:28;;;;;;;2.85;2.15;;;;;;;21.16;39.10;100862.03;4933525;29;20119;-84
2022/09/23 11:13:07;;;;;;;173.07;11.05;;;;;;;20.88;39.76;100860.94;4921226;29;20047;-81
2022/09/23 11:15:54;;;;;;;14.05;3.47;;;;;;;20.93;39.91;100862.06;4896533;29;20044;-83
2022/09/23 11:18:51;;;;;;;9.60;2.55;;;;;;;20.86;40.60;100865.72;4896400;29;20405;-83
2022/09/23 11:21:37;;;;;;;30.25;4.13;;;;;;;20.70;41.14;100850.34;4896784;29;20063;-83
2022/09/23 11:24:21;;;;;;;15.10;2.97;;;;;;;20.46;42.32;100815.88;4895747;29;20059;-82
2022/09/23 11:27:03;;;;;;;14.63;2.45;;;;;;;20.86;42.42;100846.59;4895178;29;20055;-82
2022/09/23 11:29:44;;;;;;;3.80;1.92;;;;;;;20.87;41.72;100851.03;4895386;29;20035;-84
2022/09/23 11:32:27;;;;;;;2.42;2.20;;;;;;;21.03;40.87;100845.41;4909511;28;20159;-81
2022/09/23 11:35:30;;;;;;;5.50;2.47;;;;;;;20.85;39.81;100837.56;4993642;28;20026;-85
2022/09/23 11:38:10;;;;;;;14.95;3.20;;;;;;;20.25;40.48;100820.28;4932567;29;20503;-83
2022/09/23 11:40:39;;;;;;;24.77;2.83;;;;;;;19.58;40.66;100770.06;4937319;29;20106;-84
2022/09/23 11:43:27;;;;;;;51.70;10.35;;;;;;;20.00;41.86;100814.13;4951791;28;20053;-84
2022/09/23 11:45:58;;;;;;;178.70;78.82;;;;;;;19.93;42.16;100835.03;4952525;29;20033;-83